• Join FlightAware (Why Join?)
  • Login
  • US Flag 
10:00PM EDT


 

Airport Tracker/Info


-or-


 

Live Flight TrackerFlight Track Log ✈ UPS2876 ✈ 16-Sep-2013 ✈ KSDF - KPHX

Flight Track Log - Related Links

Times and Time Zones

All times are in EDT time to prevent confusion due to time zone crossing. See the UPS2876 flight status page for this flight to view local times or setup timezone preferences in your user account.

Time Position Orientation Groundspeed Altitude Reporting Facility
EDT Latitude Longitude Course Direction KTS MPH feet Rate Location/Type
04:38PM 38.1790 -85.7460 15° North 171 197 500  Level FlightAware
04:38PM 38.1910 -85.7510 342° North 166 191 1,400 2,700 Climbing FlightAware
04:39PM 38.2070 -85.7580 341° North 191 220 2,100 1,680 Climbing FlightAware
04:39PM 38.2280 -85.7730 331° Northwest 230 265 2,700 2,040 Climbing FlightAware
04:40PM 38.2480 -85.7870 331° Northwest 240 276 3,600 2,220 Climbing FlightAware
04:40PM 38.2680 -85.8030 328° Northwest 262 302 4,200 1,680 Climbing FlightAware
04:40PM 38.2730 -85.8120 305° West 267 307 4,400 2,400 Climbing FlightAware
04:40PM 38.2770 -85.8240 293° West 270 311 4,800 2,760 Climbing FlightAware
04:40PM 38.2780 -85.8300 282° West 272 313 5,000 2,640 Climbing FlightAware
04:40PM 38.2780 -85.8380 270° West 274 315 5,200 3,300 Climbing FlightAware
04:41PM 38.2750 -85.8750 264° West 274 315 6,500 3,060 Climbing FlightAware
04:41PM 38.2700 -85.8870 242° Southwest 277 319 6,800 2,580 Climbing FlightAware
04:41PM 38.2640 -85.8980 235° Southwest 280 322 7,200 2,580 Climbing FlightAware
04:41PM 38.2560 -85.9080 224° Southwest 286 329 7,500 2,520 Climbing FlightAware
04:41PM 38.2370 -85.9290 221° Southwest 288 331 8,400 2,640 Climbing FlightAware
04:42PM 38.2190 -85.9490 221° Southwest 291 335 9,200 2,220 Climbing FlightAware
04:42PM 38.1790 -85.9940 221° Southwest 313 360 10,500 1,620 Climbing FlightAware
04:43PM 38.1380 -86.0400 221° Southwest 349 402 11,200 1,800 Climbing FlightAware
04:44PM 38.0960 -86.0900 223° Southwest 369 425 12,600 2,580 Climbing FlightAware
04:44PM 38.0830 -86.1160 238° Southwest 372 428 13,300 2,820 Climbing FlightAware
04:44PM 38.0680 -86.1730 252° West 376 433 14,600 3,000 Climbing FlightAware
04:45PM 38.0610 -86.2500 263° West 381 438 16,400 2,820 Climbing FlightAware
04:45PM 38.0540 -86.3290 264° West 394 453 17,900 2,520 Climbing FlightAware
04:46PM 38.0470 -86.4110 264° West 404 465 19,400 2,520 Climbing FlightAware
04:47PM 38.0400 -86.4940 264° West 416 479 20,800 2,400 Climbing FlightAware
04:47PM 38.0320 -86.5750 263° West 422 486 22,200 1,860 Climbing FlightAware
04:48PM 38.0240 -86.6700 264° West 431 496 23,100 2,040 Climbing FlightAware
04:48PM 38.0160 -86.7500 263° West 427 491 24,600 2,700 Climbing FlightAware
04:49PM 38.0080 -86.8420 264° West 426 490 26,200 2,760 Climbing FlightAware
04:49PM 37.9980 -86.8800 252° West 426 490 27,000 2,160 Climbing FlightAware
04:50PM 37.9690 -86.9570 244° Southwest 435 501 28,000 1,800 Climbing FlightAware
04:50PM 37.9390 -87.0330 243° Southwest 436 502 29,100 2,220 Climbing FlightAware
04:51PM 37.9150 -87.1210 251° West 424 488 30,600 2,220 Climbing FlightAware
04:51PM 37.8950 -87.2060 253° West 421 484 31,800 1,800 Climbing FlightAware
04:52PM 37.8770 -87.2810 253° West 420 483 32,700 1,740 Climbing FlightAware
04:52PM 37.8710 -87.3190 259° West 416 479 33,200 1,560 Climbing FlightAware
04:53PM 37.8690 -87.4000 268° West 404 465 34,000 660 Climbing FlightAware
04:53PM 37.8640 -87.4810 266° West 401 461 34,000  Level FlightAware
04:54PM 37.8580 -87.5690 265° West 401 461 34,000  Level FlightAware
04:55PM 37.8520 -87.6420 264° West 404 465 34,000  Level FlightAware
04:55PM 37.8450 -87.7270 264° West 408 470 34,000  Level FlightAware
04:56PM 37.8390 -87.8110 265° West 409 471 34,000  Level FlightAware
04:56PM 37.8350 -87.8900 266° West 411 473 34,000  Level FlightAware
04:57PM 37.8300 -87.9740 266° West 414 476 34,000  Level FlightAware
04:57PM 37.8250 -88.0630 266° West 416 479 34,000  Level FlightAware
04:58PM 37.8200 -88.1470 266° West 417 480 34,000  Level FlightAware
04:59PM 37.8140 -88.2360 265° West 417 480 34,000  Level FlightAware
04:59PM 37.8090 -88.3150 265° West 418 481 34,000  Level FlightAware
05:00PM 37.8030 -88.4090 265° West 418 481 34,000  Level FlightAware
05:00PM 37.7980 -88.4910 266° West 417 480 34,000  Level FlightAware
05:01PM 37.7930 -88.5690 265° West 417 480 34,000  Level FlightAware
05:02PM 37.7870 -88.6590 265° West 417 480 34,000  Level FlightAware
05:02PM 37.7810 -88.7460 265° West 417 480 34,000  Level FlightAware
05:03PM 37.7750 -88.8350 265° West 416 479 34,000  Level FlightAware
05:03PM 37.7690 -88.9260 265° West 416 479 34,000  Level FlightAware
05:04PM 37.7620 -89.0390 266° West 416 479 34,000  Level FlightAware
05:05PM 37.7550 -89.1340 265° West 416 479 34,000  Level FlightAware
05:05PM 37.7490 -89.2130 265° West 416 479 34,000  Level FlightAware
05:06PM 37.7440 -89.2980 266° West 416 479 34,000  Level FlightAware
05:07PM 37.7360 -89.3960 264° West 416 479 34,000  Level FlightAware
05:07PM 37.7300 -89.4730 264° West 416 479 34,000  Level FlightAware
05:08PM 37.7220 -89.5910 265° West 417 480 34,000  Level FlightAware
05:09PM 37.7170 -89.6670 265° West 417 480 34,000  Level FlightAware
05:09PM 37.7100 -89.7500 264° West 417 480 34,000  Level FlightAware
05:10PM 37.7040 -89.8240 264° West 417 480 34,000  Level FlightAware
05:10PM 37.6980 -89.8980 264° West 417 480 34,000  Level FlightAware
05:11PM 37.6930 -89.9520 263° West 417 480 34,000  Level FlightAware
05:11PM 37.6870 -90.0280 264° West 417 480 34,000  Level FlightAware
05:12PM 37.6810 -90.1020 264° West 417 480 34,000  Level FlightAware
05:13PM 37.6740 -90.1760 263° West 417 480 34,000  Level FlightAware
05:13PM 37.6680 -90.2530 264° West 417 480 34,000  Level FlightAware
05:14PM 37.6620 -90.3310 264° West 417 480 34,000  Level FlightAware
05:14PM 37.6550 -90.4050 263° West 417 480 34,000  Level FlightAware
05:15PM 37.6490 -90.4790 264° West 417 480 34,000  Level FlightAware
05:16PM 37.6640 -90.6970 275° West 419 482 34,000  Level FlightAware
05:16PM 37.6620 -90.7740 268° West 419 482 34,000  Level FlightAware
05:17PM 37.6600 -90.8480 268° West 419 482 34,000  Level FlightAware
05:18PM 37.6540 -91.1070 268° West 417 480 34,000  Level FlightAware
05:19PM 37.6520 -91.1810 268° West 417 480 34,000  Level FlightAware
05:20PM 37.6500 -91.2560 268° West 417 480 34,000  Level FlightAware
05:20PM 37.6480 -91.3620 269° West 417 480 34,000  Level FlightAware
05:21PM 37.6440 -91.4500 267° West 417 480 34,000  Level FlightAware
05:21PM 37.6410 -91.5270 267° West 417 480 34,000  Level FlightAware
05:22PM 37.6380 -91.6050 267° West 417 480 34,000  Level FlightAware
05:23PM 37.6360 -91.7460 269° West 420 483 34,000  Level FlightAware
05:23PM 37.6340 -91.8430 269° West 421 484 34,000  Level FlightAware
05:24PM 37.6310 -91.9370 268° West 422 486 34,000  Level FlightAware
05:25PM 37.6280 -92.0260 268° West 423 487 34,000  Level FlightAware
05:25PM 37.6250 -92.1070 267° West 423 487 34,000  Level FlightAware
05:26PM 37.6210 -92.2070 267° West 423 487 34,000  Level FlightAware
05:27PM 37.6180 -92.3080 268° West 423 487 34,000  Level FlightAware
05:27PM 37.6150 -92.3900 267° West 422 486 34,000  Level FlightAware
05:28PM 37.6120 -92.4720 267° West 422 486 34,000  Level FlightAware
05:28PM 37.6080 -92.5680 267° West 422 486 34,000  Level FlightAware
05:29PM 37.6060 -92.6380 268° West 423 487 34,000  Level FlightAware
05:30PM 37.6020 -92.7350 267° West 423 487 34,000  Level FlightAware
05:30PM 37.5990 -92.8190 267° West 423 487 34,000  Level FlightAware
05:31PM 37.5950 -92.9130 267° West 424 488 34,000  Level FlightAware
05:31PM 37.5910 -93.0120 267° West 424 488 34,000  Level FlightAware
05:32PM 37.5870 -93.1020 267° West 423 487 34,000  Level FlightAware
05:33PM 37.5840 -93.1780 267° West 423 487 34,000  Level FlightAware
05:33PM 37.5800 -93.2720 267° West 423 487 34,000  Level FlightAware
05:34PM 37.5760 -93.3500 266° West 423 487 34,000  Level FlightAware
05:34PM 37.5720 -93.4380 267° West 422 486 34,000  Level FlightAware
05:35PM 37.5680 -93.5260 267° West 422 486 34,000  Level FlightAware
05:35PM 37.5640 -93.6150 267° West 422 486 34,000  Level FlightAware
05:36PM 37.5600 -93.7050 267° West 421 484 34,000  Level FlightAware
05:37PM 37.5560 -93.7800 266° West 420 483 34,000  Level FlightAware
05:37PM 37.5520 -93.8700 267° West 420 483 34,000  Level FlightAware
05:38PM 37.5480 -93.9470 266° West 420 483 34,000  Level FlightAware
05:39PM 37.5430 -94.0430 266° West 419 482 34,000  Level FlightAware
05:39PM 37.5380 -94.1540 267° West 418 481 34,000  Level FlightAware
05:40PM 37.5330 -94.2460 266° West 418 481 34,000  Level FlightAware
05:40PM 37.5280 -94.3330 266° West 417 480 34,000  Level FlightAware
05:41PM 37.5240 -94.4080 266° West 417 480 34,000  Level FlightAware
05:42PM 37.5200 -94.4970 267° West 418 481 34,000  Level FlightAware
05:42PM 37.5150 -94.5880 266° West 417 480 34,000  Level FlightAware
05:43PM 37.5100 -94.6630 265° West 418 481 34,000  Level FlightAware
05:43PM 37.5060 -94.7510 267° West 418 481 34,000  Level FlightAware
05:44PM 37.5000 -94.8420 265° West 419 482 34,000  Level FlightAware
05:44PM 37.4960 -94.9180 266° West 419 482 34,000  Level FlightAware
05:45PM 37.4910 -95.0050 266° West 420 483 34,000  Level FlightAware
05:46PM 37.4860 -95.0900 266° West 420 483 34,000  Level FlightAware
05:46PM 37.4800 -95.1810 265° West 421 484 34,000  Level FlightAware
05:47PM 37.4750 -95.2660 266° West 422 486 34,000  Level FlightAware
05:47PM 37.4710 -95.3460 266° West 423 487 34,000  Level FlightAware
05:48PM 37.4650 -95.4410 265° West 424 488 34,000  Level FlightAware
05:48PM 37.4600 -95.5150 265° West 424 488 34,000  Level FlightAware
05:49PM 37.4540 -95.6050 265° West 425 489 34,000  Level FlightAware
05:50PM 37.4480 -95.6960 265° West 425 489 34,000  Level FlightAware
05:50PM 37.4430 -95.7760 266° West 425 489 34,000  Level FlightAware
05:51PM 37.4370 -95.8700 265° West 425 489 34,000  Level FlightAware
05:51PM 37.4320 -95.9470 265° West 425 489 34,000  Level FlightAware
05:52PM 37.4260 -96.0350 265° West 425 489 34,000  Level FlightAware
05:53PM 37.4200 -96.1300 265° West 424 488 34,000  Level FlightAware
05:53PM 37.4140 -96.2060 264° West 424 488 34,000  Level FlightAware
05:54PM 37.4080 -96.2960 265° West 423 487 34,000  Level FlightAware
05:54PM 37.4020 -96.3830 265° West 423 487 34,000  Level FlightAware
05:55PM 37.3960 -96.4720 265° West 423 487 34,000  Level FlightAware
05:56PM 37.3900 -96.5510 265° West 423 487 34,000  Level FlightAware
05:56PM 37.3840 -96.6340 265° West 424 488 34,000  Level FlightAware
05:57PM 37.3770 -96.7260 265° West 423 487 34,000  Level FlightAware
05:57PM 37.3720 -96.8050 265° West 424 488 34,000  Level FlightAware
05:58PM 37.3650 -96.8950 264° West 424 488 34,000  Level FlightAware
05:58PM 37.3580 -96.9810 264° West 424 488 34,000  Level FlightAware
05:59PM 37.3520 -97.0700 265° West 425 489 34,000  Level FlightAware
06:00PM 37.3460 -97.1500 265° West 424 488 34,000  Level FlightAware
06:00PM 37.3390 -97.2390 264° West 426 490 34,000  Level FlightAware
06:01PM 37.3320 -97.3270 264° West 427 491 34,000  Level FlightAware
06:01PM 37.3250 -97.4150 264° West 427 491 34,000  Level FlightAware
06:02PM 37.3190 -97.4940 265° West 428 493 34,000  Level FlightAware
06:03PM 37.3110 -97.5880 264° West 429 494 34,000  Level FlightAware
06:03PM 37.3040 -97.6770 264° West 429 494 34,000  Level FlightAware
06:04PM 37.2970 -97.7560 264° West 429 494 34,000  Level FlightAware
06:04PM 37.2900 -97.8440 264° West 429 494 34,000  Level FlightAware
06:05PM 37.2830 -97.9230 264° West 428 493 34,000  Level FlightAware
06:05PM 37.2760 -98.0120 264° West 428 493 34,000  Level FlightAware
06:06PM 37.2680 -98.1010 264° West 427 491 34,000  Level FlightAware
06:07PM 37.2610 -98.1890 264° West 427 491 34,000  Level FlightAware
06:07PM 37.2530 -98.2790 264° West 426 490 34,000  Level FlightAware
06:08PM 37.2460 -98.3550 263° West 425 489 34,000  Level FlightAware
06:08PM 37.2390 -98.4440 264° West 425 489 34,000  Level FlightAware
06:09PM 37.2310 -98.5270 263° West 424 488 34,000  Level FlightAware
06:09PM 37.2240 -98.6110 264° West 424 488 34,000  Level FlightAware
06:10PM 37.2140 -98.7170 263° West 424 488 34,000  Level FlightAware
06:11PM 37.2060 -98.8060 264° West 423 487 34,000  Level FlightAware
06:11PM 37.2000 -98.8750 264° West 423 487 34,000  Level FlightAware
06:12PM 37.1910 -98.9750 264° West 424 488 34,000  Level FlightAware
06:13PM 37.1830 -99.0530 263° West 424 488 34,000  Level FlightAware
06:13PM 37.1760 -99.1280 263° West 424 488 34,000  Level FlightAware
06:14PM 37.1680 -99.2180 264° West 423 487 34,000  Level FlightAware
06:14PM 37.1600 -99.3010 263° West 423 487 34,000  Level FlightAware
06:15PM 37.1500 -99.4010 263° West 423 487 34,000  Level FlightAware
06:15PM 37.1420 -99.4900 264° West 422 486 34,000  Level FlightAware
06:16PM 37.1300 -99.6040 263° West 420 483 34,000  Level FlightAware
06:17PM 37.1210 -99.6920 263° West 420 483 34,000  Level FlightAware
06:18PM 37.1120 -99.7660 261° West 420 483 34,000  Level FlightAware
06:18PM 37.1040 -99.8400 262° West 420 483 34,000  Level FlightAware
06:19PM 37.0960 -99.9130 262° West 420 483 34,000  Level FlightAware
06:19PM 37.0880 -99.9870 262° West 420 483 34,000  Level FlightAware
06:20PM 37.0790 -100.0610 261° West 420 483 34,000  Level FlightAware
06:21PM 37.0710 -100.1350 262° West 420 483 34,000  Level FlightAware
06:21PM 37.0630 -100.2090 262° West 420 483 34,000  Level FlightAware
06:22PM 37.0540 -100.2850 262° West 420 483 34,000  Level FlightAware
06:22PM 37.0460 -100.3580 262° West 420 483 34,000  Level FlightAware
06:23PM 37.0380 -100.4320 262° West 420 483 34,000  Level FlightAware
06:24PM 37.0290 -100.5060 261° West 420 483 34,000  Level FlightAware
06:24PM 37.0210 -100.5800 262° West 420 483 34,000  Level FlightAware
06:25PM 37.0130 -100.6530 262° West 420 483 34,000  Level FlightAware
06:25PM 37.0050 -100.7270 262° West 420 483 34,000  Level FlightAware
06:26PM 36.9960 -100.8010 261° West 420 483 34,000  Level FlightAware
06:27PM 36.9725 -101.1117 261° West 430 495 34,000  Level Albuquerque Center
06:28PM 36.9539 -101.2772 262° West 430 495 34,000  Level Albuquerque Center
06:29PM 36.9378 -101.4186 262° West 429 494 34,000  Level Albuquerque Center
06:30PM 36.9217 -101.5597 262° West 428 493 34,000  Level Albuquerque Center
06:31PM 36.9025 -101.7236 262° West 426 490 34,000  Level Albuquerque Center
06:32PM 36.8833 -101.8836 262° West 426 490 34,000  Level Kansas City Center
06:33PM 36.8664 -102.0239 261° West 427 491 34,000  Level Kansas City Center
06:34PM 36.8500 -102.1669 262° West 426 490 34,000  Level Albuquerque Center
06:35PM 36.8308 -102.3253 261° West 425 489 34,000  Level Albuquerque Center
06:36PM 36.8128 -102.4703 261° West 425 489 34,000  Level Albuquerque Center
06:37PM 36.7933 -102.6289 261° West 424 488 34,000  Level Albuquerque Center
06:38PM 36.7758 -102.7678 261° West 424 488 34,000  Level Albuquerque Center
06:39PM 36.7583 -102.9072 261° West 425 489 34,000  Level Albuquerque Center
06:40PM 36.7375 -103.0706 261° West 430 495 34,000  Level Albuquerque Center
06:41PM 36.7194 -103.2106 261° West 427 491 34,000 300 Level Albuquerque Center
06:42PM 36.6925 -103.3728 258° West 427 491 34,700 960 Climbing Albuquerque Center
06:43PM 36.6578 -103.5081 252° West 428 493 36,000 600 Climbing Albuquerque Center
06:44PM 36.6189 -103.6472 251° West 427 491 36,000  Level Albuquerque Center
06:45PM 36.5800 -103.7883 251° West 429 494 36,000  Level Albuquerque Center
06:46PM 36.5350 -103.9536 251° West 430 495 36,000  Level Albuquerque Center
06:47PM 36.4958 -104.0953 251° West 431 496 36,000  Level Albuquerque Center
06:48PM 36.4567 -104.2372 251° West 432 497 36,000  Level Albuquerque Center
06:49PM 36.4172 -104.3789 251° West 432 497 36,000  Level Albuquerque Center
06:50PM 36.3778 -104.5203 251° West 431 496 36,000  Level Albuquerque Center
06:52PM 36.3381 -104.6608 251° West 429 494 36,000  Level Albuquerque Center
06:53PM 36.2986 -104.8006 251° West 426 490 36,000  Level Albuquerque Center
06:54PM 36.2594 -104.9397 251° West 425 489 36,000  Level Albuquerque Center
07:00PM 36.0130 -105.7910 251° West 425 489 36,000  Level FlightAware
07:00PM 35.9840 -105.8890 250° West 426 490 36,000  Level FlightAware
07:01PM 35.9600 -105.9730 251° West 427 491 36,000  Level FlightAware
07:01PM 35.9360 -106.0510 249° West 427 491 36,000  Level FlightAware
07:02PM 35.9120 -106.1330 250° West 428 493 36,000  Level FlightAware
07:03PM 35.8900 -106.2060 250° West 427 491 36,000  Level FlightAware
07:03PM 35.8660 -106.2880 250° West 428 493 36,000  Level FlightAware
07:04PM 35.8410 -106.3710 250° West 428 493 36,000  Level FlightAware
07:04PM 35.8180 -106.4500 250° West 428 493 36,000  Level FlightAware
07:05PM 35.7930 -106.5300 249° West 428 493 36,000  Level FlightAware
07:06PM 35.7700 -106.6080 250° West 428 493 36,000  Level FlightAware
07:06PM 35.7450 -106.6910 250° West 429 494 36,000  Level FlightAware
07:07PM 35.7200 -106.7730 249° West 429 494 36,000  Level FlightAware
07:07PM 35.6960 -106.8500 249° West 429 494 36,000  Level FlightAware
07:08PM 35.6740 -106.9230 250° West 429 494 36,000  Level FlightAware
07:08PM 35.6490 -107.0040 249° West 429 494 36,000  Level FlightAware
07:09PM 35.6240 -107.0860 249° West 427 491 36,000  Level FlightAware
07:10PM 35.5990 -107.1690 250° West 428 493 36,000  Level FlightAware
07:10PM 35.5730 -107.2520 249° West 427 491 36,000  Level FlightAware
07:11PM 35.5500 -107.3270 249° West 426 490 36,000  Level FlightAware
07:11PM 35.5240 -107.4090 249° West 425 489 36,000  Level FlightAware
07:12PM 35.5020 -107.4810 249° West 426 490 36,000  Level FlightAware
07:13PM 35.4770 -107.5610 249° West 426 490 36,000  Level FlightAware
07:13PM 35.4540 -107.6420 251° West 426 490 36,000  Level FlightAware
07:14PM 35.4440 -107.7220 261° West 427 491 36,000  Level FlightAware
07:14PM 35.4340 -107.8080 262° West 435 501 36,000  Level FlightAware
07:15PM 35.4230 -107.8890 261° West 435 501 36,000 -420 Level FlightAware
07:16PM 35.4140 -107.9930 264° West 437 503 35,500 -420 Descending FlightAware
07:16PM 35.4060 -108.0690 263° West 437 503 35,500  Level FlightAware
07:17PM 35.3990 -108.1460 264° West 437 503 35,500  Level FlightAware
07:17PM 35.3910 -108.2220 263° West 437 503 35,500  Level FlightAware
07:18PM 35.3840 -108.2970 263° West 437 503 35,500  Level FlightAware
07:19PM 35.3760 -108.3720 263° West 437 503 35,500  Level FlightAware
07:19PM 35.3690 -108.4470 263° West 437 503 35,500  Level FlightAware
07:20PM 35.3610 -108.5230 263° West 437 503 35,500  Level FlightAware
07:20PM 35.3530 -108.5980 263° West 437 503 35,500  Level FlightAware
07:21PM 35.3460 -108.6730 263° West 437 503 35,500  Level FlightAware
07:22PM 35.3380 -108.7490 263° West 437 503 35,500  Level FlightAware
07:22PM 35.3310 -108.8240 263° West 437 503 35,500  Level FlightAware
07:23PM 35.3230 -108.8990 263° West 437 503 35,500 -2,100 Level FlightAware
07:23PM 35.2730 -109.1080 254° West 455 524 34,000 -2,220 Descending FlightAware
07:24PM 35.2440 -109.1900 247° West 456 525 34,000  Level FlightAware
07:24PM 35.2060 -109.2710 240° Southwest 458 527 34,000  Level FlightAware
07:25PM 35.1660 -109.3470 237° Southwest 461 531 34,000  Level FlightAware
07:25PM 35.1280 -109.4150 236° Southwest 460 529 34,000  Level FlightAware
07:26PM 35.0840 -109.4960 236° Southwest 460 529 34,000  Level FlightAware
07:26PM 35.0400 -109.5740 235° Southwest 460 529 34,000  Level FlightAware
07:27PM 34.9980 -109.6500 236° Southwest 459 528 34,000  Level FlightAware
07:28PM 34.9600 -109.7180 236° Southwest 457 526 34,000  Level FlightAware
07:28PM 34.9160 -109.7950 235° Southwest 455 524 34,000  Level FlightAware
07:29PM 34.8750 -109.8700 236° Southwest 454 522 34,000  Level FlightAware
07:29PM 34.8270 -109.9560 236° Southwest 452 520 34,000  Level FlightAware
07:30PM 34.7890 -110.0230 235° Southwest 452 520 34,000  Level FlightAware
07:31PM 34.7450 -110.1080 238° Southwest 450 518 34,000  Level FlightAware
07:31PM 34.7230 -110.1750 248° West 449 517 34,000  Level FlightAware
07:32PM 34.7090 -110.2530 258° West 450 518 34,000  Level FlightAware
07:32PM 34.6920 -110.3420 257° West 450 518 34,000  Level FlightAware
07:33PM 34.6770 -110.4290 258° West 449 517 34,000 -120 Level FlightAware
07:33PM 34.6610 -110.5180 258° West 444 511 33,900 -840 Descending FlightAware
07:34PM 34.6470 -110.5950 258° West 436 502 33,100 -1,860 Descending FlightAware
07:35PM 34.6310 -110.6820 257° West 438 504 31,800 -2,220 Descending FlightAware
07:35PM 34.6160 -110.7620 257° West 439 505 30,600 -2,160 Descending FlightAware
07:36PM 34.6020 -110.8440 258° West 433 498 29,400 -2,160 Descending FlightAware
07:36PM 34.5860 -110.9100 254° West 425 489 28,400 -2,160 Descending FlightAware
07:36PM 34.5670 -110.9440 236° Southwest 421 484 27,800 -1,800 Descending FlightAware
07:37PM 34.5500 -110.9630 223° Southwest 419 482 27,500 -1,740 Descending FlightAware
07:37PM 34.5240 -110.9820 211° Southwest 415 478 27,000 -1,980 Descending FlightAware
07:38PM 34.4640 -111.0230 209° Southwest 407 468 25,800 -1,980 Descending FlightAware
07:38PM 34.4110 -111.0580 209° Southwest 397 457 24,800 -1,860 Descending FlightAware
07:39PM 34.3550 -111.0940 208° Southwest 387 445 23,700 -1,800 Descending FlightAware
07:39PM 34.3000 -111.1300 208° Southwest 383 441 22,700 -1,800 Descending FlightAware
07:40PM 34.2420 -111.1680 208° Southwest 379 436 21,600 -1,860 Descending FlightAware
07:40PM 34.1930 -111.2000 208° Southwest 376 433 20,600 -1,800 Descending FlightAware
07:41PM 34.1380 -111.2370 209° Southwest 374 430 19,600 -1,560 Descending FlightAware
07:42PM 34.0860 -111.2710 208° Southwest 362 417 18,800 -1,620 Descending FlightAware
07:42PM 34.0370 -111.3030 208° Southwest 362 417 17,800 -1,800 Descending FlightAware
07:43PM 33.9860 -111.3360 208° Southwest 361 415 16,800 -1,740 Descending FlightAware
07:43PM 33.9270 -111.3740 208° Southwest 358 412 15,700 -1,200 Descending FlightAware
07:44PM 33.8850 -111.4060 212° Southwest 325 374 15,400 -840 Descending FlightAware
07:44PM 33.8680 -111.4290 228° Southwest 322 371 15,000 -1,440 Descending FlightAware
07:45PM 33.8370 -111.4860 237° Southwest 320 368 14,100 -1,560 Descending FlightAware
07:45PM 33.8090 -111.5400 238° Southwest 320 368 13,100 -1,620 Descending FlightAware
07:46PM 33.7800 -111.5950 238° Southwest 303 349 12,200 -1,500 Descending FlightAware
07:47PM 33.7510 -111.6510 238° Southwest 304 350 11,200 -1,560 Descending FlightAware
07:47PM 33.7260 -111.6990 238° Southwest 295 339 10,300 -1,560 Descending FlightAware
07:48PM 33.7100 -111.7280 236° Southwest 281 323 9,800 -1,320 Descending FlightAware
07:48PM 33.6960 -111.7530 236° Southwest 265 305 9,400 -840 Descending FlightAware
07:48PM 33.6810 -111.7820 238° Southwest 248 285 9,200 -300 Descending FlightAware
07:49PM 33.6680 -111.8050 236° Southwest 240 276 9,200  Level FlightAware
07:49PM 33.6560 -111.8270 237° Southwest 251 289 9,200  Level FlightAware
07:49PM 33.6430 -111.8510 237° Southwest 251 289 9,200  Level FlightAware
07:50PM 33.6280 -111.8790 237° Southwest 255 293 9,200  Level FlightAware
07:50PM 33.6150 -111.9030 237° Southwest 253 291 9,200  Level FlightAware
07:50PM 33.6070 -111.9170 236° Southwest 251 289 9,200 -180 Level FlightAware
07:51PM 33.5920 -111.9450 237° Southwest 248 285 9,100 -600 Descending FlightAware
07:51PM 33.5810 -111.9670 239° Southwest 245 282 8,800 -900 Descending FlightAware
07:51PM 33.5680 -111.9920 238° Southwest 241 277 8,500 -1,080 Descending FlightAware
07:52PM 33.5570 -112.0130 238° Southwest 241 277 8,100 -1,260 Descending FlightAware
07:52PM 33.5420 -112.0410 237° Southwest 241 277 7,600 -1,080 Descending FlightAware
07:52PM 33.5310 -112.0640 240° Southwest 241 277 7,300 -900 Descending FlightAware
07:53PM 33.5270 -112.0740 244° Southwest 239 275 7,200 -360 Descending FlightAware
07:53PM 33.5260 -112.0860 264° West 230 265 7,200  Level FlightAware
07:53PM 33.5250 -112.1130 267° West 225 259 7,200 -420 Level FlightAware
07:54PM 33.5250 -112.1430 270° West 224 258 6,900 -1,260 Descending FlightAware
07:54PM 33.5250 -112.1670 270° West 216 249 6,300 -1,920 Descending FlightAware
07:54PM 33.5250 -112.1890 270° West 216 249 5,700 -1,800 Descending FlightAware
07:54PM 33.5240 -112.2020 265° West 213 245 5,200 -1,440 Descending FlightAware
07:55PM 33.5220 -112.2060 239° Southwest 212 244 5,100 -1,740 Descending FlightAware
07:55PM 33.5170 -112.2140 233° Southwest 211 243 4,800 -2,280 Descending FlightAware
07:55PM 33.5080 -112.2190 205° Southwest 208 239 4,500 -1,440 Descending FlightAware
07:55PM 33.5000 -112.2200 186° South 207 238 4,400 -720 Descending FlightAware
07:55PM 33.4920 -112.2210 186° South 207 238 4,300 -1,200 Descending FlightAware
07:56PM 33.4530 -112.2040 160° South 198 228 3,500 -1,200 Descending FlightAware
07:56PM 33.4420 -112.1880 129° Southeast 194 223 3,200 -600 Descending FlightAware
07:56PM 33.4360 -112.1800 132° Southeast 192 221 3,200  Level FlightAware
07:57PM 33.4270 -112.1650 126° Southeast 191 220 3,200  Level FlightAware
07:57PM 33.4270 -112.1610 90° East 193 222 3,200 -420 Level FlightAware
07:57PM 33.4290 -112.1350 85° East 182 209 3,000 -720 Descending FlightAware
07:57PM 33.4290 -112.1150 90° East 172 198 2,700 -840 Descending FlightAware
07:58PM 33.4290 -112.0920 90° East 164 189 2,400 -840 Descending FlightAware
07:58PM 33.4290 -112.0690 90° East 157 181 2,000 -780 Descending FlightAware
07:59PM 33.4290 -112.0530 90° East 152 175 1,800 -780 Descending FlightAware
07:59PM 33.4290 -112.0290 90° East 155 178 1,400 -900 Descending FlightAware
07:59PM 33.4290 -112.0190 90° East 145 167 -7,020 Descending FlightAware
07:59PM 33.4290 -112.0140 90° East 120 138  Level FlightAware